Flight Track Log - Related Links

Times and Time Zones

All times are in EDT time to prevent confusion due to time zone crossing. See the OPT732 flight status page for this flight to view local times or setup timezone preferences in your user account.

Time Position Orientation Groundspeed Altitude Reporting Facility
EDT Latitude Longitude Course Direction KTS MPH feet Rate Location/Type
Sat 06:22:32 PM 33.6833 -111.9500 331° Northwest 241 277 5,300  Level Phoenix TRACON
Sat 06:23:36 PM 33.7378 -111.9528 358° North 271 312 6,700 1,952 Climbing Albuquerque Center
Sat 06:24:38 PM 33.7744 -111.8703 62° Northeast 284 327 9,400 2,098 Climbing Albuquerque Center
Sat 06:25:39 PM 33.8053 -111.7817 67° East 296 341 11,000 2,087 Climbing Albuquerque Center
Sat 06:27:00 PM 33.9017 -111.5947 58° Northeast  Level FlightAware Approximate
Sat 06:27:42 PM 33.7539 -111.5489 58° Northeast 334 384 15,800  Level Albuquerque Center
Sat 06:28:43 PM 33.7289 -111.4439 106° East 330 380 17,800 1,672 Climbing Albuquerque Center
Sat 06:29:44 PM 33.7022 -111.3311 106° East 344 396 19,200 2,098 Climbing Albuquerque Center
Sat 06:30:46 PM 33.7217 -111.2158 79° East 355 409 22,100 2,439 Climbing Albuquerque Center
Sat 06:31:47 PM 33.7594 -111.1111 67° East 345 397 24,200 1,869 Climbing Albuquerque Center
Sat 06:32:48 PM 33.8000 -110.9972 67° East 365 420 25,900 1,805 Climbing Albuquerque Center
Sat 06:33:50 PM 33.8436 -110.8808 66° East 378 435 27,900 2,049 Climbing Albuquerque Center
Sat 06:34:51 PM 33.8950 -110.7364 67° East 388 447 30,100 1,918 Climbing Albuquerque Center
Sat 06:35:52 PM 33.9400 -110.6117 66° East 400 460 31,800 1,610 Climbing Albuquerque Center
Sat 06:36:54 PM 33.9597 -110.4722 80° East 426 490 33,400 1,463 Climbing Albuquerque Center
Sat 06:37:55 PM 33.9747 -110.3231 83° East 430 495 34,800 1,525 Climbing Albuquerque Center
Sat 06:38:56 PM 33.9906 -110.1786 82° East 434 499 36,500 1,366 Climbing Albuquerque Center
Sat 06:39:58 PM 34.0103 -110.0350 81° East 436 502 37,600 1,268 Climbing Albuquerque Center
Sat 06:40:59 PM 34.0639 -109.8969 65° Northeast 432 497 39,100 984 Climbing Albuquerque Center
Sat 06:42:00 PM 34.1414 -109.8003 46° Northeast 431 496 39,600 537 Climbing Albuquerque Center
Sat 06:43:02 PM 34.2511 -109.7028 36° Northeast 435 501 40,200 585 Climbing Albuquerque Center
Sat 06:44:03 PM 34.3186 -109.5856 55° Northeast 446 513 40,800 390 Climbing Albuquerque Center
Sat 06:45:05 PM 34.3864 -109.4353 61° Northeast 456 525 41,000 98 Climbing Albuquerque Center
Sat 06:46:06 PM 34.4456 -109.3031 61° Northeast 461 531 41,000  Level Albuquerque Center
Sat 06:47:07 PM 34.5153 -109.1428 62° Northeast 474 545 41,000  Level Albuquerque Center
Sat 06:48:09 PM 34.5758 -109.0028 62° Northeast 483 556 41,000  Level Albuquerque Center
Sat 06:49:10 PM 34.6361 -108.8622 62° Northeast 489 563 41,000  Level Albuquerque Center
Sat 06:50:11 PM 34.7072 -108.7003 62° Northeast 490 564 41,000 244 Level Albuquerque Center
Sat 06:51:13 PM 34.7681 -108.5594 62° Northeast 491 565 41,500 439 Climbing Albuquerque Center
Sat 06:52:14 PM 34.8336 -108.4072 62° Northeast 485 558 41,900 443 Climbing Albuquerque Center
Sat 06:53:15 PM 34.8967 -108.2622 62° Northeast 480 552 42,400 488 Climbing Albuquerque Center
Sat 06:54:17 PM 34.9544 -108.1258 63° Northeast 476 548 42,900 537 Climbing Albuquerque Center
Sat 06:55:18 PM 35.0231 -107.9653 62° Northeast 478 550 43,500 492 Climbing Albuquerque Center
Sat 06:56:19 PM 35.0789 -107.8331 63° Northeast 476 548 43,900 488 Climbing Albuquerque Center
Sat 06:57:21 PM 35.1489 -107.6700 62° Northeast 474 545 44,500 439 Climbing Albuquerque Center
Sat 06:58:22 PM 35.2042 -107.5361 63° Northeast 467 537 44,800 197 Climbing Albuquerque Center
Sat 06:59:23 PM 35.2569 -107.4092 63° Northeast 464 534 44,900 98 Climbing Albuquerque Center
Sat 07:00:25 PM 35.3156 -107.2681 63° Northeast 462 532 45,000 49 Climbing Albuquerque Center
Sat 07:01:26 PM 35.3800 -107.1103 63° Northeast 466 536 45,000  Level Albuquerque Center
Sat 07:02:27 PM 35.4358 -106.9797 62° Northeast 471 542 45,000  Level Albuquerque Center
Sat 07:03:28 PM 35.5064 -106.8067 63° Northeast 470 541 45,000  Level Albuquerque Center
Sat 07:04:30 PM 35.5656 -106.6603 64° Northeast 475 547 45,000  Level Albuquerque Center
Sat 07:05:31 PM 35.6258 -106.5131 63° Northeast 479 551 45,000  Level Albuquerque Center
Sat 07:06:32 PM 35.6836 -106.3719 63° Northeast 479 551 45,000  Level Albuquerque Center
Sat 07:07:34 PM 35.7508 -106.2056 63° Northeast 485 558 45,000  Level Albuquerque Center
Sat 07:08:35 PM 35.8064 -106.0661 64° Northeast 489 563 45,000  Level Albuquerque Center
Sat 07:09:36 PM 35.8653 -105.9158 64° Northeast 487 560 45,000  Level Albuquerque Center
Sat 07:10:37 PM 35.9250 -105.7664 64° Northeast 487 560 45,000  Level Albuquerque Center
Sat 07:11:38 PM 35.9853 -105.6153 64° Northeast 489 563 45,000  Level Albuquerque Center
Sat 07:12:39 PM 36.0472 -105.4536 65° Northeast 490 564 45,000  Level Albuquerque Center
Sat 07:13:40 PM 36.1086 -105.2994 64° Northeast 492 566 45,000  Level Albuquerque Center
Sat 07:14:42 PM 36.1686 -105.1444 64° Northeast 494 568 45,000  Level Albuquerque Center
Sat 07:15:43 PM 36.2275 -104.9903 65° Northeast 491 565 45,000  Level Albuquerque Center
Sat 07:16:44 PM 36.2872 -104.8339 65° Northeast 494 568 45,000  Level Albuquerque Center
Sat 07:17:45 PM 36.3472 -104.6775 64° Northeast 495 570 45,000  Level Albuquerque Center
Sat 07:18:46 PM 36.4075 -104.5214 64° Northeast 496 571 45,000  Level Albuquerque Center
Sat 07:19:48 PM 36.4669 -104.3633 65° Northeast 498 573 45,000  Level Albuquerque Center
Sat 07:20:49 PM 36.5378 -104.1808 64° Northeast 498 573 45,000  Level Albuquerque Center
Sat 07:21:50 PM 36.5967 -104.0228 65° Northeast 498 573 45,000  Level Albuquerque Center
Sat 07:22:51 PM 36.6556 -103.8653 65° Northeast 497 572 45,000  Level Albuquerque Center
Sat 07:23:52 PM 36.7106 -103.7167 65° Northeast 499 574 45,000  Level Albuquerque Center
Sat 07:24:54 PM 36.7653 -103.5669 65° Northeast 499 574 45,000  Level Albuquerque Center
Sat 07:25:55 PM 36.8303 -103.3922 65° Northeast 499 574 45,000  Level Albuquerque Center
Sat 07:26:56 PM 36.8842 -103.2414 66° East 500 575 45,000  Level Albuquerque Center
Sat 07:27:57 PM 36.9497 -103.0653 65° Northeast 502 578 45,000  Level Albuquerque Center
Sat 07:28:59 PM 37.0036 -102.9139 66° East 501 577 45,000  Level Albuquerque Center
Sat 07:30:00 PM 37.0675 -102.7358 66° East 504 580 45,000  Level Albuquerque Center
Sat 07:31:01 PM 37.1228 -102.5831 66° East 504 580 45,000  Level Albuquerque Center
Sat 07:32:02 PM 37.1786 -102.4300 65° Northeast 505 581 45,000  Level Albuquerque Center
Sat 07:33:04 PM 37.2422 -102.2503 66° East 506 582 45,000  Level Albuquerque Center
Sat 07:34:05 PM 37.2958 -102.0956 66° East 507 583 45,000  Level Albuquerque Center
Sat 07:35:06 PM 37.3572 -101.9133 67° East 508 585 45,000  Level Albuquerque Center
Sat 07:35:46 PM 37.3953 -101.8100 65° Northeast 508 585 45,000  Level Kansas City Center
Sat 07:36:47 PM 37.4489 -101.6542 67° East 509 586 45,000  Level Kansas City Center
Sat 07:37:49 PM 37.5125 -101.4706 66° East 511 588 45,000  Level Kansas City Center
Sat 07:38:50 PM 37.5661 -101.3139 67° East 511 588 45,000  Level Kansas City Center
Sat 07:39:51 PM 37.6250 -101.1406 67° East 512 589 45,000  Level Kansas City Center
Sat 07:40:52 PM 37.6817 -100.9750 67° East 512 589 45,000  Level Kansas City Center
Sat 07:41:54 PM 37.7411 -100.8050 66° East 519 597 45,000  Level Kansas City Center
Sat 07:42:55 PM 37.7972 -100.6381 67° East 517 595 45,000  Level Kansas City Center
Sat 07:43:56 PM 37.8506 -100.4772 67° East 518 596 45,000  Level Kansas City Center
Sat 07:44:58 PM 37.9125 -100.2903 67° East 516 594 45,000  Level Kansas City Center
Sat 07:45:59 PM 37.9650 -100.1292 68° East 517 595 45,000  Level Kansas City Center
Sat 07:47:00 PM 38.0264 -99.9419 67° East 516 594 45,000  Level Kansas City Center
Sat 07:48:01 PM 38.0786 -99.7792 68° East 518 596 45,000  Level Kansas City Center
Sat 07:49:02 PM 38.1311 -99.6167 68° East 520 598 45,000  Level Kansas City Center
Sat 07:50:04 PM 38.1825 -99.4578 68° East 520 598 45,000  Level Kansas City Center
Sat 07:51:05 PM 38.2369 -99.2878 68° East 519 597 45,000  Level Kansas City Center
Sat 07:52:06 PM 38.3047 -99.0819 67° East 523 602 45,000  Level Kansas City Center
Sat 07:53:07 PM 38.3575 -98.9111 68° East 521 600 45,000  Level Kansas City Center
Sat 07:54:08 PM 38.4139 -98.7375 67° East 527 606 45,000  Level Kansas City Center
Sat 07:55:10 PM 38.4675 -98.5653 68° East 523 602 45,000  Level Kansas City Center
Sat 07:56:11 PM 38.5211 -98.3931 68° East 521 600 45,000  Level Kansas City Center
Sat 07:57:12 PM 38.5753 -98.2164 69° East 520 598 45,000  Level Kansas City Center
Sat 07:58:13 PM 38.6269 -98.0481 69° East 519 597 45,000  Level Kansas City Center
Sat 07:59:14 PM 38.6797 -97.8764 68° East 517 595 45,000  Level Kansas City Center
Sat 08:00:15 PM 38.7408 -97.6867 68° East 514 592 45,000  Level Kansas City Center
Sat 08:01:17 PM 38.7969 -97.5261 66° East 515 593 45,000  Level Kansas City Center
Sat 08:02:18 PM 38.8528 -97.3694 65° Northeast 518 596 45,000  Level Kansas City Center
Sat 08:03:19 PM 38.9114 -97.2014 66° East 516 594 45,000  Level Kansas City Center
Sat 08:04:20 PM 38.9700 -97.0314 66° East 519 597 45,000  Level Kansas City Center
Sat 08:05:21 PM 39.0325 -96.8558 65° Northeast 514 592 45,000  Level Kansas City Center
Sat 08:06:23 PM 39.0975 -96.6658 66° East 517 595 45,000  Level Kansas City Center
Sat 08:07:24 PM 39.1533 -96.5022 66° East 520 598 45,000  Level Kansas City Center
Sat 08:08:25 PM 39.2158 -96.3106 67° East 519 597 45,000  Level Kansas City Center
Sat 08:09:26 PM 39.2708 -96.1467 67° East 520 598 45,000  Level Kansas City Center
Sat 08:10:27 PM 39.3264 -95.9806 67° East 525 604 45,000  Level Kansas City Center
Sat 08:11:29 PM 39.3911 -95.7864 67° East 526 605 45,000  Level Kansas City Center
Sat 08:12:30 PM 39.4461 -95.6186 67° East 526 605 45,000  Level Kansas City Center
Sat 08:13:31 PM 39.5089 -95.4272 67° East 526 605 45,000  Level Kansas City Center
Sat 08:14:32 PM 39.5650 -95.2533 67° East 525 604 45,000  Level Kansas City Center
Sat 08:15:33 PM 39.6206 -95.0839 67° East 528 608 45,000  Level Kansas City Center
Sat 08:16:35 PM 39.6750 -94.9144 67° East 529 609 45,000  Level Kansas City Center
Sat 08:17:36 PM 39.7381 -94.7167 67° East 528 608 45,000  Level Kansas City Center
Sat 08:18:37 PM 39.7925 -94.5469 67° East 531 611 45,000  Level Kansas City Center
Sat 08:19:38 PM 39.8461 -94.3761 68° East 531 611 45,000  Level Kansas City Center
Sat 08:20:39 PM 39.9086 -94.1772 68° East 532 612 45,000  Level Kansas City Center
Sat 08:21:41 PM 39.9608 -94.0000 69° East 540 621 45,000  Level Kansas City Center
Sat 08:22:42 PM 40.0153 -93.8222 68° East 534 615 45,000  Level Kansas City Center
Sat 08:23:43 PM 40.0686 -93.6439 69° East 532 612 45,000  Level Kansas City Center
Sat 08:24:44 PM 40.1247 -93.4653 68° East 534 615 45,000  Level Kansas City Center
Sat 08:25:45 PM 40.1792 -93.2864 68° East 534 615 45,000  Level Kansas City Center
Sat 08:26:47 PM 40.2344 -93.1083 68° East 533 613 45,000  Level Kansas City Center
Sat 08:27:48 PM 40.2933 -92.9122 68° East 533 613 45,000  Level Kansas City Center
Sat 08:28:49 PM 40.3553 -92.7125 68° East 531 611 45,000  Level Kansas City Center
Sat 08:29:50 PM 40.4036 -92.5417 70° East 536 617 45,000  Level Kansas City Center
Sat 08:30:51 PM 40.4564 -92.3622 69° East 531 611 45,000  Level Kansas City Center
Sat 08:31:52 PM 40.5153 -92.1594 69° East 530 610 45,000  Level Kansas City Center
Sat 08:32:54 PM 40.5664 -91.9792 69° East 530 610 45,000  Level Kansas City Center
Sat 08:33:55 PM 40.6181 -91.7983 69° East 531 611 45,000  Level Kansas City Center
Sat 08:34:46 PM 40.6594 -91.6547 69° East 529 609 45,000  Level Chicago Center
Sat 08:35:48 PM 40.7108 -91.4742 69° East 530 610 45,000  Level Chicago Center
Sat 08:36:49 PM 40.7672 -91.2733 70° East 528 608 45,000  Level Chicago Center
Sat 08:37:50 PM 40.8178 -91.0928 70° East 525 604 45,000  Level Chicago Center
Sat 08:38:51 PM 40.8675 -90.9119 70° East 523 602 45,000  Level Chicago Center
Sat 08:39:52 PM 40.9175 -90.7294 70° East 525 604 45,000  Level Chicago Center
Sat 08:40:53 PM 40.9672 -90.5486 70° East 523 602 45,000  Level Chicago Center
Sat 08:41:54 PM 41.0169 -90.3672 70° East 521 600 45,000  Level Chicago Center
Sat 08:42:55 PM 41.0656 -90.1856 70° East 521 600 45,000  Level Chicago Center
Sat 08:43:56 PM 41.1142 -90.0033 70° East 520 598 45,000  Level Chicago Center
Sat 08:44:57 PM 41.1631 -89.8192 71° East 523 602 45,000  Level Chicago Center
Sat 08:45:58 PM 41.2108 -89.6350 71° East 524 603 45,000  Level Chicago Center
Sat 08:46:59 PM 41.2600 -89.4519 70° East 525 604 45,000  Level Chicago Center
Sat 08:48:00 PM 41.3067 -89.2672 71° East 525 604 45,000  Level Chicago Center
Sat 08:49:02 PM 41.3622 -89.0494 71° East 520 598 45,000  Level Chicago Center
Sat 08:50:03 PM 41.4083 -88.8661 71° East 524 603 45,000  Level Chicago Center
Sat 08:51:04 PM 41.4558 -88.6794 71° East 531 611 45,000  Level Chicago Center
Sat 08:52:05 PM 41.5022 -88.4933 72° East 529 609 45,000  Level Chicago Center
Sat 08:53:06 PM 41.5453 -88.3069 73° East 525 604 45,000  Level Chicago Center
Sat 08:54:07 PM 41.5708 -88.1111 80° East 525 604 45,000  Level Chicago Center
Sat 08:55:08 PM 41.5947 -87.9122 81° East 534 615 45,000  Level Chicago Center
Sat 08:56:09 PM 41.6158 -87.7175 82° East 529 609 45,000  Level Chicago Center
Sat 08:57:10 PM 41.6372 -87.5256 81° East 525 604 45,000  Level Chicago Center
Sat 08:58:11 PM 41.6592 -87.3314 81° East 530 610 45,000  Level Chicago Center
Sat 08:59:12 PM 41.6808 -87.1392 81° East 527 606 45,000  Level Chicago Center
Sat 09:00:16 PM 41.7050 -86.9083 82° East 525 604 45,000 -96 Level Chicago Center
Sat 09:01:17 PM 41.7256 -86.7142 82° East 528 608 44,800 -590 Descending Chicago Center
Sat 09:02:18 PM 41.7464 -86.5250 82° East 542 624 43,800 -1,230 Descending Chicago Center
Sat 09:03:19 PM 41.7675 -86.3147 82° East 570 656 42,300 -1,574 Descending Chicago Center
Sat 09:04:20 PM 41.7892 -86.1050 82° East 572 658 40,600 -1,623 Descending Chicago Center
Sat 09:05:21 PM 41.8111 -85.8950 82° East 569 655 39,000 -1,721 Descending Chicago Center
Sat 09:06:22 PM 41.8333 -85.6794 82° East 580 667 37,100 -1,967 Descending Chicago Center
Sat 09:07:23 PM 41.8544 -85.4589 83° East 586 674 35,000 -2,000 Descending Chicago Center
Sat 09:08:25 PM 41.8753 -85.2403 83° East 579 666 33,000 -2,075 Descending Chicago Center
Sat 09:09:10 PM 41.8958 -85.0525 82° East 576 663 31,300 -1,143 Descending Cleveland Center
Sat 09:10:10 PM 41.9189 -84.8308 82° East 582 670 31,000 -150 Descending Cleveland Center
Sat 09:11:10 PM 41.9414 -84.6061 82° East 594 684 31,000  Level Cleveland Center
Sat 09:12:10 PM 41.9639 -84.3814 82° East 599 689 31,000  Level Cleveland Center
Sat 09:13:10 PM 41.9786 -84.1783 84° East 605 696 31,000  Level Cleveland Center
Sat 09:14:10 PM 42.0003 -83.9475 83° East 615 708 31,000 -150 Level Cleveland Center
Sat 09:15:10 PM 42.0214 -83.7167 83° East 615 708 30,700 -1,000 Descending Cleveland Center
Sat 09:16:10 PM 42.0403 -83.4714 84° East 610 702 29,000 -1,600 Descending Cleveland Center
Sat 09:17:10 PM 42.0289 -83.2583 94° East 587 676 27,500 -1,500 Descending Cleveland Center
Sat 09:18:10 PM 42.0083 -83.0619 98° East 553 636 26,000 -1,500 Descending Cleveland Center
Sat 09:19:10 PM 41.9894 -82.8656 97° East 534 615 24,500 -1,500 Descending Cleveland Center
Sat 09:20:10 PM 41.9700 -82.6806 98° East 520 598 23,000 -1,535 Descending Cleveland Center
Sat 09:20:36 PM 41.9589 -82.5992 100° East 500 575 22,300 -1,474 Descending Cleveland Center
Sat 09:21:07 PM 41.9519 -82.5153 96° East 498 573 21,600 -1,912 Descending Cleveland Center
Sat 09:22:07 PM 41.9322 -82.3219 98° East 483 556 19,400 -2,331 Descending Cleveland Center
Sat 09:23:08 PM 41.9139 -82.1514 98° East 456 525 16,900 -2,213 Descending Cleveland Center
Sat 09:24:09 PM 41.8992 -81.9975 97° East 405 466 14,900 -1,983 Descending Cleveland Center
Sat 09:25:09 PM 41.8842 -81.8550 98° East 385 443 12,900 -2,033 Descending Cleveland Center
Sat 09:26:10 PM 41.8519 -81.7289 109° East 366 421 10,800 -2,083 Descending Cleveland Center
Sat 09:27:10 PM 41.7925 -81.6497 135° Southeast 317 365 8,700 -2,150 Descending Cleveland Center
Sat 09:28:10 PM 41.7328 -81.5708 135° Southeast 303 349 6,500 -2,100 Descending Cleveland Center
Sat 09:29:10 PM 41.6811 -81.4978 133° Southeast 285 328 4,500 -1,700 Descending Cleveland Center
Sat 09:30:10 PM 41.6608 -81.4169 109° East 240 276 3,100 -976 Descending Cleveland Center
Sat 09:31:13 PM 41.6297 -81.3917 149° Southeast 178 205 2,500 -600 Descending Cleveland Center
Sat 09:32:20 PM 41.6003 -81.4328 226° Southwest 114 131 1,800 -614 Descending Cleveland Center
Sat 09:33:20 PM 41.5772 -81.4658 227° Southwest 121 139 1,200 -600 Descending Cleveland Center
Sat 09:35:00 PM 41.5651 -81.4864 194° South  Level Estimated

Login

Don't have an account? Register now (free) for customized features, flight alerts, and more!